Time;durP1;ratioP1;P1;durP2;ratioP2;P2;SDS_P1;SDS_P2;PMS_P1;PMS_P2;Temp;Humidity;BMP_temperature;BMP_pressure;BME280_temperature;BME280_humidity;BME280_pressure;Samples;Min_cycle;Max_cycle;Signal;HPM_P1;HPM_P2
2022/06/24 00:00:16;;;;;;;8.70;4.50;;;;;;;19.11;48.47;100206.02;106316;1273;138110;-70
2022/06/24 00:03:08;;;;;;;9.70;4.50;;;;;;;19.10;48.53;100207.69;107762;1273;96254;-72
2022/06/24 00:05:40;;;;;;;8.00;4.20;;;;;;;19.10;48.57;100207.39;107134;1273;138382;-70
2022/06/24 00:08:12;;;;;;;7.80;4.00;;;;;;;19.09;48.59;100204.98;107357;1273;109140;-71
2022/06/24 00:10:44;;;;;;;8.30;4.30;;;;;;;19.08;48.60;100208.25;107725;1272;108788;-71
2022/06/24 00:13:16;;;;;;;8.30;3.90;;;;;;;19.07;48.61;100206.34;107598;1273;137770;-71
2022/06/24 00:15:51;;;;;;;6.90;4.20;;;;;;;19.06;48.59;100205.89;107764;1273;95851;-71
2022/06/24 00:18:23;;;;;;;6.90;4.10;;;;;;;19.03;48.71;100204.30;107674;1272;137740;-72
2022/06/24 00:20:55;;;;;;;6.20;4.40;;;;;;;19.01;48.80;100202.99;107763;1273;108902;-71
2022/06/24 00:23:29;;;;;;;10.60;4.50;;;;;;;19.01;48.67;100209.88;107783;1273;107659;-72
2022/06/24 00:26:01;;;;;;;5.30;4.20;;;;;;;19.00;48.71;100209.82;107713;1273;96023;-71
2022/06/24 00:28:33;;;;;;;6.50;4.20;;;;;;;18.99;48.78;100213.05;107686;1273;95898;-72
2022/06/24 00:31:07;;;;;;;8.60;4.50;;;;;;;18.97;48.87;100214.39;107628;1272;137677;-72
2022/06/24 00:33:45;;;;;;;7.20;4.00;;;;;;;18.96;48.80;100213.63;107576;1273;108905;-71
2022/06/24 00:36:18;;;;;;;5.30;4.60;;;;;;;18.94;48.85;100214.58;106039;1273;138501;-71
2022/06/24 00:38:54;;;;;;;11.30;5.70;;;;;;;18.94;48.86;100214.77;106889;1273;96423;-71
2022/06/24 00:41:28;;;;;;;6.60;5.00;;;;;;;18.94;48.96;100213.05;106393;1273;98216;-71
2022/06/24 00:44:03;;;;;;;6.60;5.30;;;;;;;18.92;49.02;100212.45;107779;1273;112572;-72
2022/06/24 00:46:38;;;;;;;7.30;4.60;;;;;;;18.90;48.97;100210.70;107741;1273;108918;-71
2022/06/24 00:49:12;;;;;;;7.50;4.80;;;;;;;18.87;49.04;100210.20;107635;1272;138442;-71
2022/06/24 00:51:44;;;;;;;8.50;4.80;;;;;;;18.84;49.13;100207.70;106445;1273;97809;-70
2022/06/24 00:54:18;;;;;;;6.40;3.80;;;;;;;18.83;49.04;100206.73;107180;1273;137874;-71
2022/06/24 00:56:56;;;;;;;10.90;4.70;;;;;;;18.82;49.13;100205.59;107387;1273;111451;-70
2022/06/24 00:59:29;;;;;;;8.60;4.40;;;;;;;18.78;49.16;100204.10;106815;1273;107762;-71
2022/06/24 01:02:04;;;;;;;9.90;4.30;;;;;;;18.76;49.20;100207.59;107308;1272;108753;-71
2022/06/24 01:04:37;;;;;;;5.20;4.00;;;;;;;18.74;49.14;100206.84;106528;1271;97964;-71
2022/06/24 01:07:09;;;;;;;7.90;4.50;;;;;;;18.72;49.32;100206.79;107614;1273;137661;-71
2022/06/24 01:09:41;;;;;;;5.30;3.90;;;;;;;18.70;49.28;100204.25;107007;1273;112632;-71
2022/06/24 01:12:13;;;;;;;8.60;4.60;;;;;;;18.69;49.32;100208.05;107135;1273;138042;-71
2022/06/24 01:14:46;;;;;;;8.10;3.80;;;;;;;18.67;49.37;100209.92;107710;1273;108776;-70
2022/06/24 01:17:18;;;;;;;5.10;4.60;;;;;;;18.65;49.45;100210.05;107757;1272;96126;-70
2022/06/24 01:19:50;;;;;;;5.90;3.90;;;;;;;18.64;49.58;100209.04;107608;1273;138738;-71
2022/06/24 01:22:23;;;;;;;6.30;3.90;;;;;;;18.63;49.64;100206.80;107763;1272;112536;-70
2022/06/24 01:24:56;;;;;;;6.40;3.80;;;;;;;18.62;49.63;100206.13;107664;1272;138157;-71
2022/06/24 01:27:28;;;;;;;8.60;3.30;;;;;;;18.61;49.83;100205.14;106488;1273;108387;-69
2022/06/24 01:30:01;;;;;;;3.90;3.50;;;;;;;18.60;49.92;100205.27;106120;1273;138134;-70
2022/06/24 01:32:34;;;;;;;5.60;3.50;;;;;;;18.57;49.98;100201.94;106720;1273;97963;-70
2022/06/24 01:35:08;;;;;;;9.20;3.80;;;;;;;18.54;50.07;100199.83;106357;1273;112556;-71
2022/06/24 01:37:40;;;;;;;4.80;3.50;;;;;;;18.49;50.00;100195.92;107674;1273;137864;-71
2022/06/24 01:40:14;;;;;;;6.00;3.50;;;;;;;18.47;50.28;100199.93;107773;1273;107817;-72
2022/06/24 01:42:47;;;;;;;5.90;3.70;;;;;;;18.44;50.27;100196.64;107596;1273;137891;-72
2022/06/24 01:45:19;;;;;;;5.00;3.40;;;;;;;18.41;50.21;100194.70;107382;1273;96993;-71
2022/06/24 01:47:51;;;;;;;6.60;4.00;;;;;;;18.39;50.27;100194.48;107641;1272;139405;-70
2022/06/24 01:50:24;;;;;;;4.70;3.70;;;;;;;18.37;50.22;100191.42;107686;1273;107897;-71
2022/06/24 01:52:57;;;;;;;4.10;3.70;;;;;;;18.36;50.23;100193.83;107663;1273;108887;-71
2022/06/24 01:55:29;;;;;;;5.60;4.00;;;;;;;18.34;50.33;100197.84;107125;1272;138443;-70
2022/06/24 01:58:01;;;;;;;6.10;3.90;;;;;;;18.32;50.35;100195.46;106356;1273;97838;-70
2022/06/24 02:00:33;;;;;;;4.20;3.80;;;;;;;18.30;50.43;100192.42;107708;1273;139738;-71
2022/06/24 02:03:08;;;;;;;7.70;5.20;;;;;;;18.29;50.40;100199.19;106802;1273;108816;-71
2022/06/24 02:05:41;;;;;;;4.90;3.90;;;;;;;18.27;50.49;100201.59;106624;1272;137955;-71
2022/06/24 02:08:13;;;;;;;5.40;4.00;;;;;;;18.24;50.53;100202.85;107546;1273;96537;-72
2022/06/24 02:13:37;;;;;;;6.30;4.00;;;;;;;18.18;50.57;100209.44;107235;1272;139437;-72
2022/06/24 02:16:09;;;;;;;5.70;4.50;;;;;;;18.14;50.66;100208.61;107041;1271;109042;-71
2022/06/24 02:18:42;;;;;;;7.00;4.50;;;;;;;18.11;50.79;100207.55;107633;1272;138563;-71
2022/06/24 02:21:15;;;;;;;7.90;4.60;;;;;;;18.08;50.87;100206.32;107696;1272;96418;-70
2022/06/24 02:23:47;;;;;;;5.90;4.10;;;;;;;18.05;50.92;100205.09;107587;1273;137861;-70
2022/06/24 02:26:19;;;;;;;4.80;4.30;;;;;;;18.03;51.06;100204.55;107710;1273;112355;-70
2022/06/24 02:28:52;;;;;;;8.60;5.40;;;;;;;18.01;51.06;100208.21;107788;1272;108857;-70
2022/06/24 02:31:24;;;;;;;9.70;5.00;;;;;;;17.99;51.14;100209.58;107663;1272;137911;-70
2022/06/24 02:33:58;;;;;;;9.30;4.90;;;;;;;17.97;51.09;100209.34;107775;1272;95851;-70
2022/06/24 02:36:30;;;;;;;6.30;4.30;;;;;;;17.96;51.13;100212.04;107599;1273;138446;-70
2022/06/24 02:39:03;;;;;;;6.00;4.20;;;;;;;17.97;51.16;100215.33;107717;1272;112126;-71
2022/06/24 02:41:35;;;;;;;6.20;4.10;;;;;;;17.97;51.16;100211.66;107616;1273;139904;-72
2022/06/24 02:44:08;;;;;;;5.50;4.30;;;;;;;17.97;51.23;100213.76;106389;1273;107436;-70
2022/06/24 02:46:41;;;;;;;5.80;4.60;;;;;;;17.97;51.25;100214.27;107801;1272;96125;-70
2022/06/24 02:49:13;;;;;;;5.50;4.00;;;;;;;17.97;51.42;100221.82;107390;1273;138215;-71
2022/06/24 02:51:45;;;;;;;5.40;4.10;;;;;;;17.97;51.44;100222.02;106228;1273;112455;-71
2022/06/24 02:54:17;;;;;;;8.10;4.30;;;;;;;17.96;51.47;100225.05;106105;1273;138102;-72
2022/06/24 02:56:50;;;;;;;4.20;3.70;;;;;;;17.95;51.48;100225.27;106158;1273;109432;-72
2022/06/24 02:59:22;;;;;;;6.10;4.00;;;;;;;17.94;51.58;100223.76;106236;1273;97858;-71
2022/06/24 03:01:55;;;;;;;7.60;4.50;;;;;;;17.92;51.67;100226.32;106395;1273;137715;-71
2022/06/24 03:04:27;;;;;;;5.40;3.80;;;;;;;17.91;51.70;100226.80;107675;1273;112376;-72
2022/06/24 03:06:59;;;;;;;7.70;4.20;;;;;;;17.89;51.69;100229.16;107592;1273;138552;-72
2022/06/24 03:09:31;;;;;;;8.80;3.80;;;;;;;17.89;51.76;100231.14;107761;1272;108642;-71
2022/06/24 03:12:04;;;;;;;5.90;4.40;;;;;;;17.89;51.85;100226.56;107603;1273;138089;-72
2022/06/24 03:14:36;;;;;;;6.30;3.90;;;;;;;17.89;51.88;100227.45;106256;1272;97852;-71
2022/06/24 03:17:14;;;;;;;5.40;4.10;;;;;;;17.90;51.85;100227.39;107553;1271;111079;-72
2022/06/24 03:19:46;;;;;;;6.10;4.10;;;;;;;17.90;51.90;100230.18;106977;1273;137974;-72
2022/06/24 03:22:18;;;;;;;6.70;4.20;;;;;;;17.91;52.02;100229.92;106953;1272;108993;-72
2022/06/24 03:24:51;;;;;;;8.80;4.10;;;;;;;17.93;52.00;100234.20;106839;1273;137806;-72
2022/06/24 03:27:23;;;;;;;6.80;4.30;;;;;;;17.95;52.09;100229.52;106190;1273;97808;-71
2022/06/24 03:29:55;;;;;;;7.60;4.00;;;;;;;17.95;52.13;100232.83;107206;1272;139244;-72
2022/06/24 03:32:28;;;;;;;6.20;4.30;;;;;;;17.96;52.11;100236.15;107806;1272;108916;-72
2022/06/24 03:35:01;;;;;;;5.20;3.80;;;;;;;17.97;52.16;100232.90;107710;1273;107710;-72
2022/06/24 03:37:33;;;;;;;7.00;3.90;;;;;;;17.98;52.10;100237.77;107601;1270;137853;-72
2022/06/24 03:40:07;;;;;;;7.80;4.20;;;;;;;18.00;52.12;100234.09;107798;1273;96091;-72
2022/06/24 03:42:39;;;;;;;7.60;3.90;;;;;;;18.03;52.04;100232.50;107320;1273;137694;-72
2022/06/24 03:45:12;;;;;;;7.30;4.10;;;;;;;18.07;52.07;100235.05;107397;1273;108279;-72
2022/06/24 03:47:44;;;;;;;5.40;3.70;;;;;;;18.11;52.11;100237.43;107588;1272;139210;-71
2022/06/24 03:50:16;;;;;;;5.00;3.80;;;;;;;18.16;51.97;100236.80;106221;1273;97967;-71
2022/06/24 03:52:49;;;;;;;5.70;3.70;;;;;;;18.18;51.98;100239.16;107822;1272;96143;-72
2022/06/24 03:55:21;;;;;;;7.40;3.90;;;;;;;18.23;51.96;100242.52;106193;1273;138030;-71
2022/06/24 03:57:54;;;;;;;4.60;4.00;;;;;;;18.26;51.96;100240.05;106255;1273;108903;-71
2022/06/24 04:00:26;;;;;;;9.00;3.50;;;;;;;18.28;51.93;100240.96;106094;1273;138394;-70
2022/06/24 04:02:59;;;;;;;8.70;3.50;;;;;;;18.31;51.82;100245.19;107152;1273;97650;-71
2022/06/24 04:05:31;;;;;;;5.10;3.60;;;;;;;18.34;51.90;100246.05;107713;1272;95783;-70
2022/06/24 04:08:03;;;;;;;8.20;4.10;;;;;;;18.37;51.73;100243.54;106823;1273;111478;-70
2022/06/24 04:10:38;;;;;;;5.60;4.00;;;;;;;18.42;51.77;100247.08;106287;1273;109112;-71
2022/06/24 04:13:10;;;;;;;9.40;4.30;;;;;;;18.47;51.77;100246.27;106552;1273;138524;-71
2022/06/24 04:15:49;;;;;;;4.80;3.60;;;;;;;18.49;51.61;100246.98;106228;1273;97899;-70
2022/06/24 04:18:22;;;;;;;8.50;4.10;;;;;;;18.53;51.57;100253.06;106073;1273;137854;-70
2022/06/24 04:20:54;;;;;;;6.90;3.90;;;;;;;18.57;51.67;100253.16;106276;1273;112023;-70
2022/06/24 04:23:27;;;;;;;5.40;4.00;;;;;;;18.61;51.60;100256.92;106265;1273;109058;-70
2022/06/24 04:25:59;;;;;;;7.00;3.70;;;;;;;18.65;51.43;100261.63;107560;1273;137937;-70
2022/06/24 04:28:31;;;;;;;6.50;4.00;;;;;;;18.69;51.49;100259.45;107756;1272;96562;-71
2022/06/24 04:31:04;;;;;;;7.70;3.90;;;;;;;18.75;51.50;100258.93;106563;1273;137859;-70
2022/06/24 04:33:36;;;;;;;7.50;4.10;;;;;;;18.80;51.34;100258.22;107719;1273;112547;-70
2022/06/24 04:36:13;;;;;;;9.80;4.20;;;;;;;18.85;51.23;100256.09;106676;1273;138448;-71
2022/06/24 04:38:45;;;;;;;7.00;4.00;;;;;;;18.90;50.99;100258.02;106325;1273;109016;-71
2022/06/24 04:41:18;;;;;;;6.10;4.10;;;;;;;18.95;50.85;100257.39;106202;1273;97862;-72
2022/06/24 04:43:51;;;;;;;8.10;4.20;;;;;;;19.01;50.69;100258.04;106109;1273;137792;-73
2022/06/24 04:46:23;;;;;;;7.90;3.70;;;;;;;19.07;50.67;100258.15;106170;1273;112426;-71
2022/06/24 04:48:55;;;;;;;7.40;4.50;;;;;;;19.14;50.71;100261.01;106675;1273;138166;-70
2022/06/24 04:51:28;;;;;;;9.20;4.30;;;;;;;19.20;50.63;100256.57;106159;1273;108589;-71
2022/06/24 04:54:00;;;;;;;6.60;4.00;;;;;;;19.26;50.69;100255.95;106098;1273;138145;-69
2022/06/24 04:56:32;;;;;;;15.40;5.00;;;;;;;19.32;50.50;100261.17;106221;1271;97839;-71
2022/06/24 04:59:05;;;;;;;7.90;4.10;;;;;;;19.39;50.44;100259.85;105950;1273;292564;-72
2022/06/24 05:01:37;;;;;;;7.50;4.00;;;;;;;19.47;50.48;100259.50;106006;1273;137977;-72
2022/06/24 05:04:10;;;;;;;6.50;4.30;;;;;;;19.54;50.04;100258.30;106195;1271;108860;-72
2022/06/24 05:06:42;;;;;;;6.70;4.10;;;;;;;19.61;49.94;100260.83;106691;1272;138179;-72
2022/06/24 05:09:14;;;;;;;7.80;4.30;;;;;;;19.68;49.99;100256.30;107792;1272;96144;-73
2022/06/24 05:11:48;;;;;;;9.40;4.50;;;;;;;19.77;49.86;100256.73;106800;1273;137907;-70
2022/06/24 05:14:21;;;;;;;10.70;4.50;;;;;;;19.86;49.41;100259.76;106252;1273;109134;-70
2022/06/24 05:16:54;;;;;;;7.80;4.00;;;;;;;19.95;49.55;100258.77;106171;1273;110263;-73
2022/06/24 05:19:26;;;;;;;8.20;3.80;;;;;;;20.06;49.09;100259.25;106073;1273;138436;-71
2022/06/24 05:21:59;;;;;;;9.20;4.20;;;;;;;20.17;48.98;100254.91;106192;1272;97941;-71
2022/06/24 05:24:31;;;;;;;6.90;3.60;;;;;;;20.33;48.45;100255.86;106125;1273;138823;-71
2022/06/24 05:27:03;;;;;;;7.10;4.00;;;;;;;20.51;48.30;100252.98;106039;1273;108823;-71
2022/06/24 05:29:35;;;;;;;9.30;4.00;;;;;;;20.76;48.36;100250.09;106106;1273;139420;-69
2022/06/24 05:32:09;;;;;;;6.50;3.90;;;;;;;20.97;48.08;100251.35;106093;1273;98547;-71
2022/06/24 05:34:42;;;;;;;8.40;3.70;;;;;;;21.23;47.84;100254.16;107680;1273;96835;-72
2022/06/24 05:37:14;;;;;;;8.00;4.00;;;;;;;21.50;47.13;100260.92;107041;1273;139042;-73
2022/06/24 05:39:46;;;;;;;10.40;3.60;;;;;;;21.76;46.42;100257.44;106231;1273;109198;-71
2022/06/24 05:42:18;;;;;;;6.80;3.40;;;;;;;21.96;45.26;100258.20;106075;1272;138236;-73
2022/06/24 05:44:51;;;;;;;7.10;3.40;;;;;;;22.11;44.81;100262.84;106226;1273;97955;-70
2022/06/24 05:47:23;;;;;;;9.60;3.10;;;;;;;22.28;44.48;100253.48;106109;1273;97922;-68
2022/06/24 05:49:55;;;;;;;7.40;3.50;;;;;;;22.48;44.22;100256.48;106157;1273;137560;-69
2022/06/24 05:55:17;;;;;;;8.90;3.50;;;;;;;22.78;42.91;100256.35;106551;1273;138127;-69
2022/06/24 05:57:49;;;;;;;6.40;3.60;;;;;;;22.90;42.75;100255.71;106239;1273;97842;-68
2022/06/24 06:00:22;;;;;;;8.80;3.30;;;;;;;23.09;42.46;100254.63;106091;1273;138910;-69
2022/06/24 06:02:54;;;;;;;5.00;3.00;;;;;;;23.43;41.78;100254.05;107677;1273;112549;-69
2022/06/24 06:05:29;;;;;;;10.30;3.10;;;;;;;24.45;39.98;100252.02;107790;1271;106980;-70
2022/06/24 06:08:01;;;;;;;6.10;3.00;;;;;;;26.03;38.49;100250.64;107675;1273;107838;-70
2022/06/24 06:10:35;;;;;;;6.90;2.90;;;;;;;27.34;35.90;100242.74;107518;1273;99356;-70
2022/06/24 06:13:07;;;;;;;6.80;3.10;;;;;;;28.76;34.69;100243.45;106362;1271;138844;-69
2022/06/24 06:15:40;;;;;;;4.80;2.80;;;;;;;29.94;33.95;100240.06;107610;1272;112493;-68
2022/06/24 06:18:12;;;;;;;4.20;2.60;;;;;;;31.11;32.43;100236.08;107579;1271;137928;-68
2022/06/24 06:20:44;;;;;;;6.20;3.00;;;;;;;32.41;30.47;100236.66;107425;1271;109875;-68
2022/06/24 06:23:17;;;;;;;6.90;2.80;;;;;;;33.41;28.43;100235.80;107585;1273;95908;-68
2022/06/24 06:25:50;;;;;;;9.40;2.70;;;;;;;34.26;28.21;100237.02;107464;1273;137763;-68
2022/06/24 06:28:22;;;;;;;4.00;2.30;;;;;;;35.46;27.37;100232.94;107623;1271;112556;-68
2022/06/24 06:30:55;;;;;;;6.90;2.70;;;;;;;36.54;26.37;100226.32;107539;1272;138029;-70
2022/06/24 06:33:27;;;;;;;3.30;2.30;;;;;;;37.46;24.91;100225.52;107603;1272;108748;-68
2022/06/24 06:36:06;;;;;;;2.00;1.80;;;;;;;37.89;22.44;100235.76;107515;1271;139949;-68
2022/06/24 06:38:39;;;;;;;5.50;2.50;;;;;;;38.05;22.32;100230.60;107362;1272;96524;-71
2022/06/24 06:41:18;;;;;;;5.80;2.60;;;;;;;38.27;21.70;100230.17;107682;1271;111378;-70
2022/06/24 06:43:50;;;;;;;13.90;2.80;;;;;;;38.58;20.94;100230.98;107393;1272;138404;-71
2022/06/24 06:46:29;;;;;;;9.60;2.40;;;;;;;38.90;20.85;100223.81;107716;1273;109623;-71
2022/06/24 06:49:01;;;;;;;2.70;2.10;;;;;;;39.08;19.69;100220.81;107568;1272;138183;-69
2022/06/24 06:51:34;;;;;;;5.60;3.00;;;;;;;39.18;19.98;100222.98;107782;1272;95795;-72
2022/06/24 06:54:06;;;;;;;4.60;3.80;;;;;;;39.51;19.78;100219.88;106384;1273;137891;-73
2022/06/24 06:56:40;;;;;;;4.30;2.00;;;;;;;39.83;19.64;100222.81;106199;1273;108586;-71
2022/06/24 06:59:12;;;;;;;3.10;2.10;;;;;;;39.83;18.57;100225.96;106067;1273;107945;-70
2022/06/24 07:01:44;;;;;;;3.70;1.80;;;;;;;39.71;18.63;100222.30;106052;1272;137903;-71
2022/06/24 07:04:17;;;;;;;5.10;2.10;;;;;;;39.47;17.96;100222.80;107531;1272;95908;-71
2022/06/24 07:06:49;;;;;;;5.60;2.30;;;;;;;39.25;18.29;100223.32;107051;1273;137767;-70
2022/06/24 07:09:21;;;;;;;5.90;2.20;;;;;;;39.37;18.80;100214.53;106889;1271;107564;-71
2022/06/24 07:11:54;;;;;;;6.20;2.30;;;;;;;39.61;18.78;100218.29;107307;1271;138042;-70
2022/06/24 07:14:26;;;;;;;5.10;2.10;;;;;;;39.95;18.55;100218.48;106604;1271;97845;-71
2022/06/24 07:16:59;;;;;;;3.40;2.30;;;;;;;40.15;18.43;100216.36;107641;1271;96142;-71
2022/06/24 07:19:31;;;;;;;6.90;2.00;;;;;;;40.12;16.90;100216.92;106558;1273;137702;-70
2022/06/24 07:22:05;;;;;;;5.80;2.50;;;;;;;39.98;17.99;100210.34;107713;1273;107646;-71
2022/06/24 07:24:37;;;;;;;3.00;2.10;;;;;;;40.25;17.82;100216.77;107356;1270;138962;-71
2022/06/24 07:27:11;;;;;;;5.00;2.20;;;;;;;40.19;16.64;100214.59;106169;1271;97960;-72
2022/06/24 07:29:44;;;;;;;4.50;2.00;;;;;;;39.66;17.04;100212.40;106690;1273;138050;-71
2022/06/24 07:32:16;;;;;;;3.60;1.90;;;;;;;39.32;17.42;100212.61;106172;1273;112601;-70
2022/06/24 07:34:48;;;;;;;2.30;1.80;;;;;;;39.18;17.26;100213.84;106155;1273;108916;-70
2022/06/24 07:37:21;;;;;;;4.20;1.80;;;;;;;39.19;17.22;100217.52;106085;1273;139413;-70
2022/06/24 07:39:53;;;;;;;2.70;1.80;;;;;;;39.14;17.59;100210.77;107773;1271;96236;-70
2022/06/24 07:42:26;;;;;;;5.40;2.00;;;;;;;39.20;17.65;100202.58;106629;1271;138515;-70
2022/06/24 07:44:58;;;;;;;4.10;1.70;;;;;;;39.40;17.86;100204.39;106217;1273;112078;-71
2022/06/24 07:47:31;;;;;;;6.40;2.10;;;;;;;39.56;17.26;100211.96;106094;1273;108744;-71
2022/06/24 07:50:03;;;;;;;4.10;2.00;;;;;;;39.19;17.40;100211.55;106179;1273;107991;-71
2022/06/24 07:52:35;;;;;;;3.10;1.90;;;;;;;38.92;17.54;100208.87;107499;1273;96160;-72
2022/06/24 07:57:58;;;;;;;3.20;1.90;;;;;;;38.10;17.94;100208.00;107692;1271;112678;-71
2022/06/24 08:00:30;;;;;;;5.90;1.90;;;;;;;37.81;18.01;100207.95;106393;1273;137935;-71
2022/06/24 08:03:02;;;;;;;4.10;1.70;;;;;;;37.50;18.19;100200.95;106140;1271;109066;-70
2022/06/24 08:05:35;;;;;;;3.00;1.80;;;;;;;37.30;18.64;100198.98;106170;1273;97840;-71
2022/06/24 08:08:08;;;;;;;3.40;1.90;;;;;;;36.98;18.25;100193.15;106150;1273;97696;-70
2022/06/24 08:10:40;;;;;;;4.00;1.90;;;;;;;36.73;18.97;100185.69;107709;1272;114639;-71
2022/06/24 08:13:12;;;;;;;6.40;2.30;;;;;;;36.73;18.95;100190.66;107646;1272;139643;-70
2022/06/24 08:15:44;;;;;;;3.40;2.20;;;;;;;36.68;18.86;100190.13;107762;1272;108843;-71
2022/06/24 08:18:17;;;;;;;3.90;1.90;;;;;;;36.51;18.82;100186.54;106547;1273;140182;-72
2022/06/24 08:20:49;;;;;;;6.70;2.10;;;;;;;36.35;19.18;100188.84;106210;1273;98024;-71
2022/06/24 08:23:21;;;;;;;3.90;2.00;;;;;;;36.29;19.38;100185.33;106179;1273;112852;-73
2022/06/24 08:25:55;;;;;;;2.50;1.70;;;;;;;36.45;19.37;100180.89;107554;1273;137754;-72
2022/06/24 08:28:27;;;;;;;2.30;1.70;;;;;;;36.39;19.20;100184.34;107633;1272;109078;-71
2022/06/24 08:31:01;;;;;;;2.30;1.50;;;;;;;36.20;19.11;100179.23;105946;1273;139619;-71
2022/06/24 08:33:36;;;;;;;3.20;1.70;;;;;;;35.99;19.00;100181.95;106196;1272;97847;-71
2022/06/24 08:36:08;;;;;;;4.00;1.70;;;;;;;35.63;19.30;100175.33;106032;1273;138240;-72
2022/06/24 08:38:40;;;;;;;4.20;1.80;;;;;;;35.37;19.71;100175.27;106136;1272;108330;-72
2022/06/24 08:41:14;;;;;;;2.40;1.70;;;;;;;35.09;19.72;100171.00;106133;1273;109221;-71
2022/06/24 08:43:48;;;;;;;3.40;1.80;;;;;;;34.78;19.88;100180.31;105982;1273;137874;-72
2022/06/24 08:46:21;;;;;;;4.60;1.70;;;;;;;34.37;19.75;100176.00;106103;1273;97832;-70
2022/06/24 08:48:58;;;;;;;2.50;1.60;;;;;;;34.01;20.56;100169.81;107653;1273;138797;-72
2022/06/24 08:51:31;;;;;;;2.50;1.60;;;;;;;34.03;20.22;100167.31;107738;1271;108768;-71
2022/06/24 08:54:04;;;;;;;7.60;1.90;;;;;;;34.01;20.95;100166.31;106425;1273;138101;-72
2022/06/24 08:56:57;;;;;;;2.60;1.70;;;;;;;33.89;20.87;100175.88;106009;1273;98560;-71
2022/06/24 08:59:31;;;;;;;7.20;1.60;;;;;;;33.66;21.02;100165.69;106082;1273;97843;-71
2022/06/24 09:02:04;;;;;;;4.00;1.80;;;;;;;33.43;21.35;100166.53;106058;1271;137856;-70
2022/06/24 09:04:36;;;;;;;5.30;1.70;;;;;;;33.35;21.47;100161.15;107724;1273;109117;-71
2022/06/24 09:07:17;;;;;;;1.80;1.70;;;;;;;33.38;20.72;100157.73;107548;1273;137825;-71
2022/06/24 09:10:00;;;;;;;3.60;1.60;;;;;;;33.30;20.31;100166.48;107775;1272;95999;-71
2022/06/24 09:12:37;;;;;;;6.00;1.70;;;;;;;32.92;20.64;100157.94;106536;1271;137836;-72
2022/06/24 09:15:12;;;;;;;3.00;1.50;;;;;;;32.79;21.26;100155.55;106236;1272;112438;-71
2022/06/24 09:17:46;;;;;;;2.90;1.60;;;;;;;32.73;21.84;100156.55;107590;1271;138791;-71
2022/06/24 09:20:21;;;;;;;4.20;1.80;;;;;;;32.85;22.04;100146.73;107746;1271;108878;-71
2022/06/24 09:23:08;;;;;;;7.40;1.60;;;;;;;32.96;22.24;100155.27;107684;1273;96077;-72
2022/06/24 09:25:49;;;;;;;3.20;1.50;;;;;;;32.87;22.20;100148.71;107714;1272;138133;-72
2022/06/24 09:28:25;;;;;;;3.00;1.60;;;;;;;32.58;22.34;100146.73;107068;1272;112166;-71
2022/06/24 09:31:02;;;;;;;;;;;;;;;32.44;22.26;100143.58;106017;1273;137773;-70
2022/06/24 09:33:40;;;;;;;3.60;1.40;;;;;;;32.34;22.82;100145.04;106121;1273;107879;-71
2022/06/24 09:36:13;;;;;;;1.70;1.40;;;;;;;32.41;22.44;100145.17;106033;1273;138157;-71
2022/06/24 09:39:00;;;;;;;2.70;1.50;;;;;;;32.34;22.56;100143.01;106140;1273;98353;-71
2022/06/24 09:41:42;;;;;;;3.60;1.60;;;;;;;32.27;22.72;100136.25;106190;1273;112211;-71
2022/06/24 09:44:16;;;;;;;4.10;1.80;;;;;;;32.41;23.32;100129.26;106166;1273;108965;-71
2022/06/24 09:47:01;;;;;;;6.00;1.70;;;;;;;32.67;23.20;100130.79;106100;1273;108893;-70
2022/06/24 09:49:34;;;;;;;2.20;1.70;;;;;;;32.66;22.94;100135.71;106357;1271;137927;-71
2022/06/24 09:52:10;;;;;;;4.60;1.30;;;;;;;32.51;23.18;100123.27;106131;1273;97827;-70
2022/06/24 09:54:42;;;;;;;2.50;1.60;;;;;;;32.45;22.63;100126.31;107614;1272;137909;-71
2022/06/24 09:57:15;;;;;;;4.50;1.60;;;;;;;32.21;22.53;100132.73;107671;1273;109051;-72
2022/06/24 10:02:39;;;;;;;2.60;1.70;;;;;;;31.68;23.48;100137.17;106110;1271;97832;-70
2022/06/24 10:05:16;;;;;;;6.40;2.00;;;;;;;31.45;23.58;100119.02;106191;1273;97847;-73
2022/06/24 10:07:49;;;;;;;3.20;1.80;;;;;;;31.37;24.12;100122.67;105996;1273;138388;-72
2022/06/24 10:10:22;;;;;;;3.40;1.50;;;;;;;31.55;24.64;100106.68;107281;1273;109109;-71
2022/06/24 10:13:01;;;;;;;2.40;1.60;;;;;;;31.90;24.20;100103.23;106004;1273;138209;-72
2022/06/24 10:15:33;;;;;;;3.40;1.50;;;;;;;31.93;24.34;100117.63;106164;1271;97831;-70
2022/06/24 10:18:10;;;;;;;1.90;1.50;;;;;;;31.72;24.29;100103.80;106294;1273;137913;-70
2022/06/24 10:20:46;;;;;;;5.00;1.90;;;;;;;31.60;24.34;100099.77;106337;1273;111434;-70
2022/06/24 10:23:43;;;;;;;4.70;1.80;;;;;;;31.53;24.72;100097.13;106363;1273;109024;-69
2022/06/24 10:26:18;;;;;;;3.50;1.70;;;;;;;31.50;24.78;100083.23;106123;1272;108976;-69
2022/06/24 10:29:23;;;;;;;4.30;1.80;;;;;;;31.82;24.95;100080.61;107710;1273;96221;-71
2022/06/24 10:32:01;;;;;;;5.90;1.80;;;;;;;31.93;24.46;100088.16;106565;1273;138121;-68
2022/06/24 10:34:51;;;;;;;2.60;1.60;;;;;;;31.59;24.62;100100.52;106185;1273;111436;-70
2022/06/24 10:37:32;;;;;;;3.60;1.90;;;;;;;31.41;25.01;100089.81;106032;1273;137908;-71
2022/06/24 10:40:05;;;;;;;4.50;1.90;;;;;;;31.33;25.03;100084.90;106143;1273;108817;-73
2022/06/24 10:42:57;;;;;;;5.30;1.50;;;;;;;31.44;25.23;100094.49;106004;1273;139547;-69
2022/06/24 10:45:37;;;;;;;2.00;1.50;;;;;;;31.26;24.77;100092.27;107735;1273;96324;-72
2022/06/24 10:48:09;;;;;;;3.30;1.60;;;;;;;30.95;25.29;100087.86;106197;1273;137927;-70
2022/06/24 10:50:42;;;;;;;2.60;1.80;;;;;;;30.74;25.09;100085.80;106141;1273;108929;-72
2022/06/24 10:53:14;;;;;;;2.80;1.50;;;;;;;30.38;25.02;100087.30;106194;1273;108597;-73
2022/06/24 10:55:46;;;;;;;3.40;1.80;;;;;;;30.18;25.81;100075.00;105984;1273;137820;-72
2022/06/24 10:58:19;;;;;;;3.20;1.60;;;;;;;30.06;25.93;100071.52;106109;1273;97823;-70
2022/06/24 11:00:56;;;;;;;5.60;1.90;;;;;;;30.13;26.08;100065.20;106079;1271;137735;-71
2022/06/24 11:03:38;;;;;;;4.20;1.50;;;;;;;30.20;26.33;100059.72;107742;1271;107962;-71
2022/06/24 11:06:13;;;;;;;2.70;2.00;;;;;;;30.22;26.22;100061.08;107569;1273;138141;-71
2022/06/24 11:08:46;;;;;;;2.90;1.90;;;;;;;30.07;26.37;100068.37;107663;1273;95822;-71
2022/06/24 11:11:30;;;;;;;4.60;1.90;;;;;;;29.83;26.58;100061.33;107772;1272;96296;-72
2022/06/24 11:14:22;;;;;;;3.60;1.90;;;;;;;29.75;26.83;100069.02;107635;1272;138819;-72
2022/06/24 11:16:55;;;;;;;3.50;2.00;;;;;;;29.47;27.23;100060.85;107757;1271;108160;-74
2022/06/24 11:19:28;;;;;;;3.70;1.60;;;;;;;29.38;27.55;100057.89;107580;1273;138646;-72
2022/06/24 11:22:00;;;;;;;4.00;2.00;;;;;;;29.46;27.57;100053.45;107768;1272;96164;-71
2022/06/24 11:24:34;;;;;;;2.50;1.60;;;;;;;29.48;27.05;100050.36;107615;1273;137580;-70
2022/06/24 11:27:08;;;;;;;3.40;1.60;;;;;;;29.49;27.36;100043.79;107725;1272;112941;-70
2022/06/24 11:29:56;;;;;;;4.30;1.60;;;;;;;29.61;27.37;100048.13;107622;1271;138064;-70
2022/06/24 11:32:28;;;;;;;3.00;1.90;;;;;;;29.71;27.33;100051.77;107707;1273;108800;-71
2022/06/24 11:35:01;;;;;;;3.30;2.20;;;;;;;29.51;27.36;100047.92;107766;1271;96025;-70
2022/06/24 11:37:35;;;;;;;4.20;1.90;;;;;;;29.42;27.52;100046.47;107601;1272;138345;-72
2022/06/24 11:40:24;;;;;;;2.20;1.60;;;;;;;29.45;27.68;100038.86;106237;1273;113210;-72
2022/06/24 11:43:00;;;;;;;3.60;1.60;;;;;;;29.49;27.83;100032.71;106021;1273;138040;-69
2022/06/24 11:45:39;;;;;;;2.80;1.50;;;;;;;29.68;27.93;100033.91;106990;1274;108820;-71
2022/06/24 11:48:13;;;;;;;2.00;1.70;;;;;;;29.70;27.52;100036.71;106492;1272;140094;-71
2022/06/24 11:50:46;;;;;;;5.30;1.60;;;;;;;29.44;27.45;100050.11;107683;1273;97051;-70
2022/06/24 11:53:23;;;;;;;5.30;1.70;;;;;;;29.15;27.87;100032.48;106178;1273;112123;-71